Time;durP1;ratioP1;P1;durP2;ratioP2;P2;SDS_P1;SDS_P2;PMS_P1;PMS_P2;Temp;Humidity;BMP_temperature;BMP_pressure;BME280_temperature;BME280_humidity;BME280_pressure;Samples;Min_cycle;Max_cycle;Signal;HPM_P1;HPM_P2
2021/08/17 00:01:10;;;;;;;;;;;;;;;11.56;100.00;95821.22;10492144;28;2261;-77
2021/08/17 00:06:14;;;;;;;;;;;;;;;11.76;100.00;95821.09;10468711;28;2348;-77
2021/08/17 00:11:17;;;;;;;;;;;;;;;11.73;100.00;95829.75;10495436;28;2694;-79
2021/08/17 00:16:19;;;;;;;;;;;12.80;99.90;;;11.79;100.00;95823.25;10495373;28;2451;-76
2021/08/17 00:21:22;;;;;;;;;;;12.50;99.90;;;11.82;100.00;95813.81;10505173;28;2460;-77
2021/08/17 00:26:25;;;;;;;;;;;12.80;99.90;;;11.95;100.00;95804.31;10491222;28;2450;-79
2021/08/17 00:31:28;;;;;;;;;;;;;;;11.92;100.00;95805.69;10500716;28;2237;-78
2021/08/17 00:36:32;;;;;;;;;;;;;;;12.02;100.00;95810.19;10500533;28;2471;-76
2021/08/17 00:41:35;;;;;;;;;;;;;;;12.05;100.00;95820.41;10473514;28;2492;-77
2021/08/17 00:46:38;;;;;;;;;;;;;;;12.02;100.00;95821.75;10496172;28;2158;-77
2021/08/17 00:51:41;;;;;;;;;;;;;;;11.87;100.00;95820.00;10501703;28;2507;-79
2021/08/17 00:56:46;;;;;;;;;;;;;;;12.02;100.00;95815.56;10494897;28;2660;-77
2021/08/17 01:01:49;;;;;;;;;;;;;;;12.20;100.00;95822.97;10491661;28;2523;-76
2021/08/17 01:06:52;;;;;;;;;;;;;;;12.14;100.00;95824.09;10490824;28;2582;-80
2021/08/17 01:11:55;;;;;;;;;;;;;;;12.07;100.00;95829.00;10492581;28;2153;-77
2021/08/17 01:16:59;;;;;;;;;;;;;;;12.12;100.00;95826.28;10486627;28;2376;-77
2021/08/17 01:22:02;;;;;;;;;;;;;;;12.03;100.00;95822.59;10490068;28;2439;-78
2021/08/17 01:27:25;;;;;;;;;;;12.60;99.90;;;11.93;100.00;95833.44;10491018;28;2618;-79
2021/08/17 01:32:28;;;;;;;;;;;12.90;99.90;;;11.61;100.00;95861.59;10474177;28;2459;-78
2021/08/17 01:37:31;;;;;;;;;;;12.60;99.90;;;11.07;100.00;95890.09;10502185;28;2566;-77
2021/08/17 01:42:35;;;;;;;;;;;;;;;10.57;100.00;95893.69;10487428;28;2577;-79
2021/08/17 01:47:38;;;;;;;;;;;;;;;10.66;100.00;95897.41;10493121;28;2573;-79
2021/08/17 01:52:41;;;;;;;;;;;;;;;10.55;100.00;95901.19;10489726;28;2598;-79
2021/08/17 01:57:44;;;;;;;;;;;;;;;10.51;100.00;95909.00;10486870;28;2531;-78
2021/08/17 02:02:48;;;;;;;;;;;;;;;10.45;100.00;95906.59;10495035;28;2575;-75
2021/08/17 02:07:53;;;;;;;;;;;;;;;10.56;100.00;95908.19;10516428;28;2476;-78
2021/08/17 02:12:57;;;;;;;;;;;;;;;10.64;100.00;95904.97;10520949;28;2540;-78
2021/08/17 02:18:00;;;;;;;;;;;;;;;10.81;100.00;95893.88;10507588;28;2594;-78
2021/08/17 02:23:03;;;;;;;;;;;;;;;10.86;100.00;95903.84;10501351;28;2520;-79
2021/08/17 02:28:07;;;;;;;;;;;;;;;11.14;100.00;95915.91;10509939;28;2534;-80
2021/08/17 02:33:10;;;;;;;;;;;;;;;11.13;100.00;95915.06;10503236;28;2247;-79
2021/08/17 02:38:14;;;;;;;;;;;;;;;11.11;100.00;95930.69;10497656;28;2607;-79
2021/08/17 02:43:22;;;;;;;;;;;;;;;11.15;100.00;95939.84;10477494;28;2551;-78
2021/08/17 02:48:26;;;;;;;;;;;;;;;11.12;100.00;95947.63;10494451;28;2284;-79
2021/08/17 02:53:29;;;;;;;;;;;;;;;11.21;100.00;95954.88;10494666;28;2780;-78
2021/08/17 02:58:32;;;;;;;;;;;;;;;11.27;100.00;95967.25;10499196;28;2574;-76
2021/08/17 03:03:35;;;;;;;;;;;;;;;11.21;100.00;95968.34;10466735;28;2163;-77
2021/08/17 03:08:38;;;;;;;;;;;;;;;11.17;100.00;95959.19;10511165;28;2969;-77
2021/08/17 03:13:42;;;;;;;;;;;;;;;11.14;100.00;95962.44;10496395;28;2544;-77
2021/08/17 03:18:45;;;;;;;;;;;;;;;11.05;100.00;95969.44;10498158;28;2028;-77
2021/08/17 03:23:48;;;;;;;;;;;;;;;11.08;100.00;95971.59;10490105;28;2491;-76
2021/08/17 03:28:51;;;;;;;;;;;;;;;11.04;100.00;95981.28;10497986;28;2464;-78
2021/08/17 03:33:54;;;;;;;;;;;;;;;11.17;100.00;95977.22;10496979;28;2598;-77
2021/08/17 03:38:57;;;;;;;;;;;;;;;10.92;100.00;95981.56;10508666;28;2426;-78
2021/08/17 03:44:01;;;;;;;;;;;;;;;10.83;100.00;95992.06;10476456;28;2127;-78
2021/08/17 03:49:04;;;;;;;;;;;;;;;10.86;100.00;96000.66;10499726;28;2507;-79
2021/08/17 03:54:07;;;;;;;;;;;;;;;10.83;100.00;95994.75;10481199;28;2729;-78
2021/08/17 03:59:10;;;;;;;;;;;;;;;10.73;100.00;95992.03;10499974;28;2678;-79
2021/08/17 04:04:14;;;;;;;;;;;;;;;10.55;100.00;96004.13;10490062;28;2520;-79
2021/08/17 04:09:17;;;;;;;;;;;;;;;10.47;100.00;96011.94;10504928;28;2599;-77
2021/08/17 04:14:20;;;;;;;;;;;;;;;10.45;100.00;96017.56;10481116;28;2569;-79
2021/08/17 04:19:23;;;;;;;;;;;;;;;10.45;100.00;96025.63;10493732;28;2678;-76
2021/08/17 04:24:26;;;;;;;;;;;;;;;10.39;100.00;96025.91;10492630;28;2583;-78
2021/08/17 04:29:30;;;;;;;;;;;;;;;10.20;100.00;96034.41;10508790;28;2614;-78
2021/08/17 04:34:33;;;;;;;;;;;;;;;10.05;100.00;96037.03;10508181;28;2508;-78
2021/08/17 04:39:36;;;;;;;;;;;;;;;10.01;100.00;96049.38;10490746;28;2653;-79
2021/08/17 04:44:39;;;;;;;;;;;;;;;10.13;100.00;96049.16;10488927;28;2603;-78
2021/08/17 04:49:42;;;;;;;;;;;;;;;10.31;100.00;96067.53;10488815;28;2578;-76
2021/08/17 04:54:45;;;;;;;;;;;;;;;10.60;100.00;96062.47;10495704;28;2646;-78
2021/08/17 04:59:48;;;;;;;;;;;;;;;10.62;100.00;96068.38;10499657;28;2598;-80
2021/08/17 05:04:52;;;;;;;;;;;;;;;10.80;100.00;96067.06;10502713;28;2534;-79
2021/08/17 05:09:55;;;;;;;;;;;;;;;10.99;100.00;96078.09;10502547;28;2515;-79
2021/08/17 05:14:58;;;;;;;;;;;;;;;11.34;100.00;96077.31;10513962;28;2504;-79
2021/08/17 05:20:17;;;;;;;;;;;;;;;11.78;100.00;96080.19;10498384;28;2595;-79
2021/08/17 05:25:20;;;;;;;;;;;;;;;12.44;100.00;96076.47;10500280;28;2574;-80
2021/08/17 05:30:24;;;;;;;;;;;;;;;12.40;97.25;96081.59;10480538;28;2524;-80
2021/08/17 05:35:27;;;;;;;;;;;;;;;12.20;100.00;96080.88;10506150;28;2540;-79
2021/08/17 05:40:30;;;;;;;;;;;;;;;12.40;98.15;96084.28;10507014;28;2436;-78
2021/08/17 05:45:34;;;;;;;;;;;;;;;12.75;98.30;96087.06;10510102;28;2471;-79
2021/08/17 05:50:37;;;;;;;;;;;;;;;12.66;96.55;96094.94;10480338;28;2664;-80
2021/08/17 05:55:40;;;;;;;;;;;;;;;12.69;93.55;96094.38;10513913;28;2524;-80
2021/08/17 06:00:43;;;;;;;;;;;;;;;13.00;91.38;96097.69;10513824;28;2527;-79
2021/08/17 06:05:47;;;;;;;;;;;;;;;13.24;90.96;96101.34;10520255;28;2559;-80
2021/08/17 06:10:50;;;;;;;;;;;;;;;13.41;87.36;96106.31;10513850;28;2419;-78
2021/08/17 06:15:53;;;;;;;;;;;;;;;13.46;86.53;96125.16;10482303;28;2094;-80
2021/08/17 06:20:56;;;;;;;;;;;;;;;13.60;83.36;96122.63;10480174;28;2754;-79
2021/08/17 06:26:00;;;;;;;;;;;;;;;13.39;82.77;96119.28;10502700;28;2701;-81
2021/08/17 06:31:03;;;;;;;;;;;;;;;13.63;82.88;96140.16;10481974;28;2566;-79
2021/08/17 06:36:06;;;;;;;;;;;;;;;13.94;79.75;96132.59;10521171;28;2606;-82
2021/08/17 06:41:10;;;;;;;;;;;;;;;13.28;81.66;96133.16;10516949;28;2547;-82
2021/08/17 06:46:13;;;;;;;;;;;;;;;13.19;80.35;96146.41;10499722;28;2532;-81
2021/08/17 06:51:16;;;;;;;;;;;;;;;13.21;79.72;96128.06;10500395;28;1635;-81
2021/08/17 06:56:20;;;;;;;;;;;;;;;14.43;77.15;96142.28;10501306;28;2569;-80
2021/08/17 07:01:24;;;;;;;;;;;;;;;14.53;76.03;96151.13;10504068;28;2349;-82
2021/08/17 07:06:28;;;;;;;;;;;;;;;14.73;73.12;96154.69;10504683;28;2249;-83
2021/08/17 07:11:31;;;;;;;;;;;;;;;14.82;70.89;96155.63;10495829;28;2423;-81
2021/08/17 07:16:36;;;;;;;;;;;;;;;14.53;73.07;96153.03;10492233;28;2393;-83
2021/08/17 07:21:39;;;;;;;;;;;;;;;14.98;70.16;96140.00;10516791;28;2376;-82
2021/08/17 07:26:43;;;;;;;;;;;;;;;15.42;71.56;96136.91;10500497;28;2455;-81
2021/08/17 07:31:47;;;;;;;;;;;;;;;15.93;65.56;96147.72;10486200;28;2389;-81
2021/08/17 07:36:50;;;;;;;;;;;;;;;14.93;64.24;96151.69;10508917;28;2378;-81
2021/08/17 07:41:53;;;;;;;;;;;;;;;14.82;67.33;96161.03;10492656;28;2249;-81
2021/08/17 07:46:57;;;;;;;;;;;;;;;15.52;65.33;96155.69;10520315;28;2071;-81
2021/08/17 07:52:01;;;;;;;;;;;;;;;15.87;62.49;96158.94;10507808;28;2328;-79
2021/08/17 07:57:04;;;;;;;;;;;;;;;14.65;68.45;96161.53;10500725;28;2384;-84
2021/08/17 08:02:08;;;;;;;;;;;;;;;14.63;64.72;96173.72;10501972;28;1907;-83
2021/08/17 08:07:11;;;;;;;;;;;;;;;15.16;64.07;96151.94;10486971;28;2350;-83
2021/08/17 08:12:15;;;;;;;;;;;;;;;14.78;62.05;96160.84;10487543;28;2249;-82
2021/08/17 08:17:18;;;;;;;;;;;;;;;15.03;65.28;96156.19;10491380;28;1953;-80
2021/08/17 08:22:23;;;;;;;;;;;;;;;15.54;63.41;96150.00;10498250;28;2366;-82
2021/08/17 08:27:26;;;;;;;;;;;;;;;15.26;61.39;96155.28;10500865;28;2345;-83
2021/08/17 08:32:30;;;;;;;;;;;;;;;15.51;63.13;96145.94;10500646;28;2276;-83
2021/08/17 08:37:33;;;;;;;;;;;;;;;15.82;59.08;96150.91;10496819;28;2332;-79
2021/08/17 08:42:36;;;;;;;;;;;;;;;16.11;58.96;96146.03;10512665;28;2409;-82
2021/08/17 08:47:40;;;;;;;;;;;;;;;15.94;56.60;96148.50;10499987;28;2346;-79
2021/08/17 08:52:44;;;;;;;;;;;;;;;16.28;58.72;96147.34;10500256;28;1998;-79
2021/08/17 08:57:50;;;;;;;;;;;;;;;16.34;55.98;96154.28;10484125;28;2354;-84
2021/08/17 09:02:53;;;;;;;;;;;;;;;16.59;59.28;96152.97;10509646;28;2389;-85
2021/08/17 09:07:57;;;;;;;;;;;;;;;16.49;54.80;96154.81;10485693;28;2370;-79
2021/08/17 09:13:00;;;;;;;;;;;;;;;16.91;54.69;96154.78;10508098;28;2277;-82
2021/08/17 09:18:04;;;;;;;;;;;;;;;17.34;56.97;96154.38;10485752;28;2390;-80
2021/08/17 09:23:08;;;;;;;;;;;;;;;17.17;52.66;96147.69;10510913;28;2295;-81
2021/08/17 09:28:11;;;;;;;;;;;;;;;17.61;50.28;96151.53;10496851;28;2455;-83
2021/08/17 09:33:15;;;;;;;;;;;;;;;16.93;52.29;96152.59;10489442;28;2347;-82
2021/08/17 09:38:17;;;;;;;;;;;17.90;99.90;;;16.88;53.43;96144.53;10519796;28;2316;-82
2021/08/17 09:43:20;;;;;;;;;;;17.60;99.90;;;16.85;55.53;96123.41;10516165;28;2245;-84
2021/08/17 09:48:23;;;;;;;;;;;17.40;99.90;;;18.09;52.58;96119.09;10512528;28;2229;-82
2021/08/17 09:53:26;;;;;;;;;;;18.20;99.90;;;18.77;51.92;96099.81;10487818;28;2266;-82
2021/08/17 09:58:31;;;;;;;;;;;19.00;99.90;;;18.40;49.77;96106.56;10501961;28;2436;-82
2021/08/17 10:03:33;;;;;;;;;;;19.10;99.90;;;18.15;49.99;96103.44;10497207;28;2221;-82
2021/08/17 10:08:36;;;;;;;;;;;18.90;99.90;;;17.40;51.56;96099.59;10487419;28;2415;-79
2021/08/17 10:13:39;;;;;;;;;;;18.50;99.90;;;17.13;53.63;96100.53;10497505;28;2328;-80
2021/08/17 10:18:42;;;;;;;;;;;18.00;99.90;;;17.74;52.48;96088.16;10506311;28;2373;-80
2021/08/17 10:23:45;;;;;;;;;;;18.20;99.90;;;17.68;53.93;96083.94;10512272;28;2183;-80
2021/08/17 10:28:47;;;;;;;;;;;18.20;99.90;;;17.86;51.23;96092.22;10519735;28;2258;-81
2021/08/17 10:33:50;;;;;;;;;;;18.40;99.90;;;18.06;49.52;96075.38;10506220;28;2342;-82
2021/08/17 10:38:53;;;;;;;;;;;18.60;99.90;;;17.52;50.88;96080.03;10516617;28;2310;-81
2021/08/17 10:43:56;;;;;;;;;;;18.30;99.90;;;18.16;49.34;96057.97;10491350;28;2310;-80
2021/08/17 10:48:59;;;;;;;;;;;18.60;99.90;;;18.30;49.38;96053.22;10492980;28;2405;-79
2021/08/17 10:54:02;;;;;;;;;;;19.00;99.90;;;17.51;50.76;96056.69;10518821;28;2319;-80
2021/08/17 10:59:05;;;;;;;;;;;18.70;99.90;;;18.39;49.74;96056.78;10507953;28;2339;-79
2021/08/17 11:04:09;;;;;;;;;;;18.80;99.90;;;19.03;49.83;96048.88;10493072;28;2298;-78
2021/08/17 11:09:12;;;;;;;;;;;19.50;99.90;;;19.35;49.04;96039.38;10515404;28;2326;-81
2021/08/17 11:14:15;;;;;;;;;;;20.10;99.90;;;18.63;46.56;96045.44;10509119;28;2278;-81
2021/08/17 11:19:18;;;;;;;;;;;19.80;99.90;;;18.57;46.13;96042.06;10491887;28;2325;-79
2021/08/17 11:24:21;;;;;;;;;;;19.60;99.90;;;18.56;47.15;96040.47;10512948;28;2394;-80
2021/08/17 11:29:25;;;;;;;;;;;19.20;99.90;;;18.89;46.78;96037.31;10499157;28;2212;-80
2021/08/17 11:34:28;;;;;;;;;;;19.50;99.90;;;19.16;45.59;96047.91;10489312;28;2383;-79
2021/08/17 11:39:30;;;;;;;;;;;19.80;99.90;;;18.80;47.18;96034.59;10504658;28;2315;-80
2021/08/17 11:44:37;;;;;;;;;;;19.60;99.90;;;19.21;45.57;96040.66;10508198;28;2317;-81
2021/08/17 11:49:40;;;;;;;;;;;19.90;99.90;;;18.46;47.16;96040.78;10490547;28;2284;-79
2021/08/17 11:54:42;;;;;;;;;;;19.60;99.90;;;18.17;48.33;96043.25;10508619;28;2346;-81
2021/08/17 11:59:46;;;;;;;;;;;19.20;99.90;;;18.78;49.47;96036.06;10510645;28;2257;-79
2021/08/17 12:04:49;;;;;;;;;;;19.30;99.90;;;18.88;49.28;96036.50;10504969;28;2351;-78
2021/08/17 12:09:52;;;;;;;;;;;19.50;99.90;;;19.21;48.30;96025.13;10499745;28;2231;-79
2021/08/17 12:14:55;;;;;;;;;;;19.70;99.90;;;20.29;45.28;96022.22;10531087;28;2355;-80
2021/08/17 12:19:57;;;;;;;;;;;20.20;99.90;;;20.01;45.04;96011.00;10530106;28;2310;-77
2021/08/17 12:25:00;;;;;;;;;;;20.60;99.90;;;19.98;46.20;95996.09;10501884;28;2302;-80
2021/08/17 12:30:03;;;;;;;;;;;20.40;99.90;;;20.18;45.89;95991.81;10507380;28;2077;-81
2021/08/17 12:35:06;;;;;;;;;;;20.70;99.90;;;19.78;43.94;95992.13;10512025;28;2498;-79
2021/08/17 12:40:08;;;;;;;;;;;20.90;99.90;;;19.10;45.27;95991.19;10506021;28;2706;-81
2021/08/17 12:45:11;;;;;;;;;;;20.20;99.90;;;19.98;45.80;95990.63;10524257;28;1976;-81
2021/08/17 12:50:15;;;;;;;;;;;20.50;99.90;;;20.15;45.28;95985.06;10516020;28;2291;-79
2021/08/17 12:55:18;;;;;;;;;;;20.90;99.90;;;19.30;44.74;95998.66;10507586;28;2301;-81
2021/08/17 13:00:22;;;;;;;;;;;20.70;99.90;;;19.80;45.55;95984.44;10517722;28;2396;-81
2021/08/17 13:05:25;;;;;;;;;;;20.50;99.90;;;19.74;46.11;95996.66;10510036;28;2342;-81
2021/08/17 13:10:29;;;;;;;;;;;20.70;99.90;;;18.98;46.67;95996.47;10506945;28;2540;-81
2021/08/17 13:15:32;;;;;;;;;;;20.30;99.90;;;18.49;46.84;96003.94;10495209;28;2305;-81
2021/08/17 13:20:34;;;;;;;;;;;19.80;99.90;;;18.47;47.82;95987.94;10509536;28;2410;-79
2021/08/17 13:25:39;;;;;;;;;;;19.50;99.90;;;19.08;46.50;96002.38;10511125;28;2458;-82
2021/08/17 13:30:42;;;;;;;;;;;19.70;99.90;;;18.72;47.78;95997.28;10496867;28;2294;-80
2021/08/17 13:35:45;;;;;;;;;;;19.70;99.90;;;19.14;46.42;95994.84;10514193;28;1965;-82
2021/08/17 13:40:48;;;;;;;;;;;19.80;99.90;;;19.11;46.09;95987.31;10516233;28;2328;-80
2021/08/17 13:45:50;;;;;;;;;;;20.00;99.90;;;19.50;44.38;95953.56;10514525;28;2381;-79
2021/08/17 13:50:53;;;;;;;;;;;20.20;99.90;;;19.59;45.07;95964.44;10495124;28;1915;-79
2021/08/17 13:55:56;;;;;;;;;;;20.50;99.90;;;19.72;46.24;95955.25;10514355;28;2290;-79
2021/08/17 14:00:59;;;;;;;;;;;20.60;99.90;;;19.59;45.43;95959.00;10530934;28;2333;-78
2021/08/17 14:06:02;;;;;;;;;;;20.50;99.90;;;19.24;46.36;95964.53;10533167;28;2260;-80
2021/08/17 14:11:05;;;;;;;;;;;20.10;99.90;;;18.94;44.84;95960.88;10538026;28;2364;-80
2021/08/17 14:16:08;;;;;;;;;;;20.00;99.90;;;19.30;42.84;95965.97;10517878;28;2321;-81
2021/08/17 14:21:10;;;;;;;;;;;20.10;99.90;;;19.70;40.91;95966.50;10509704;28;2259;-81
2021/08/17 14:26:13;;;;;;;;;;;20.40;99.90;;;19.82;41.52;95965.81;10506212;28;2666;-81
2021/08/17 14:31:16;;;;;;;;;;;20.50;99.90;;;19.74;40.85;95972.13;10498828;28;2294;-81
2021/08/17 14:36:19;;;;;;;;;;;20.70;99.90;;;19.68;42.22;95954.31;10502374;28;2255;-81
2021/08/17 14:41:23;;;;;;;;;;;20.50;99.90;;;19.87;42.44;95962.91;10513536;28;2362;-80
2021/08/17 14:46:28;;;;;;;;;;;20.60;99.90;;;20.29;40.01;95960.25;10502059;28;2387;-80
2021/08/17 14:51:30;;;;;;;;;;;20.90;99.90;;;19.83;40.42;95948.31;10521961;28;2332;-79
2021/08/17 14:56:33;;;;;;;;;;;20.90;99.90;;;19.21;41.93;95935.19;10527570;28;2626;-79
2021/08/17 15:01:36;;;;;;;;;;;20.20;99.90;;;19.71;38.23;95934.56;10533780;28;2383;-79
2021/08/17 15:06:39;;;;;;;;;;;20.40;99.90;;;19.50;38.04;95936.41;10504768;28;2351;-80
2021/08/17 15:11:42;;;;;;;;;;;20.40;98.80;;;19.33;39.41;95924.41;10512403;28;2337;-79
2021/08/17 15:16:44;;;;;;;;;;;20.10;99.50;;;20.12;39.48;95913.97;10521904;28;1984;-80
2021/08/17 15:21:47;;;;;;;;;;;20.50;99.90;;;20.11;39.18;95896.00;10509782;28;2358;-81
2021/08/17 15:26:50;;;;;;;;;;;20.80;99.90;;;19.29;39.49;95898.97;10500106;28;2462;-80
2021/08/17 15:31:53;;;;;;;;;;;20.50;98.80;;;19.60;40.15;95882.34;10525614;28;1726;-81
2021/08/17 15:36:56;;;;;;;;;;;20.30;99.90;;;19.65;39.85;95893.03;10535029;28;2254;-81
2021/08/17 15:41:59;;;;;;;;;;;20.40;99.80;;;19.83;39.64;95873.88;10525093;28;2372;-80
2021/08/17 15:47:01;;;;;;;;;;;20.50;99.90;;;19.98;39.86;95862.41;10485181;28;2285;-80
2021/08/17 15:52:04;;;;;;;;;;;20.70;99.90;;;19.52;41.82;95855.06;10517469;28;2388;-83
2021/08/17 15:57:07;;;;;;;;;;;20.60;99.90;;;18.99;42.80;95862.66;10503155;28;2448;-80
2021/08/17 16:02:10;;;;;;;;;;;20.30;99.90;;;18.77;44.15;95866.41;10518257;28;2385;-80
2021/08/17 16:07:13;;;;;;;;;;;19.90;99.90;;;18.55;45.01;95875.53;10499033;28;2294;-80
2021/08/17 16:12:16;;;;;;;;;;;19.60;99.90;;;18.59;43.69;95860.16;10523822;28;2324;-80
2021/08/17 16:17:19;;;;;;;;;;;19.50;99.90;;;18.53;44.74;95855.19;10510100;28;2491;-80
2021/08/17 16:22:21;;;;;;;;;;;19.50;99.90;;;18.49;45.73;95870.56;10513945;28;2313;-80
2021/08/17 16:27:24;;;;;;;;;;;19.30;99.90;;;18.27;45.98;95852.50;10494844;28;2338;-81
2021/08/17 16:32:27;;;;;;;;;;;19.20;99.90;;;18.16;46.30;95854.72;10496151;28;2298;-81
2021/08/17 16:37:30;;;;;;;;;;;19.10;99.90;;;18.20;46.90;95852.19;10499719;28;2292;-82
2021/08/17 16:42:33;;;;;;;;;;;19.10;99.90;;;18.16;46.68;95851.22;10496886;28;2332;-82
2021/08/17 16:47:36;;;;;;;;;;;19.10;99.90;;;17.97;46.26;95837.91;10516609;28;2312;-81
2021/08/17 16:52:39;;;;;;;;;;;19.10;99.90;;;17.55;47.02;95832.84;10518602;28;2288;-81
2021/08/17 16:57:41;;;;;;;;;;;18.70;99.90;;;17.60;49.05;95823.75;10489673;28;2345;-80
2021/08/17 17:02:45;;;;;;;;;;;18.70;99.90;;;17.32;50.71;95849.59;10494735;28;2348;-79
2021/08/17 17:07:48;;;;;;;;;;;18.50;99.90;;;17.23;51.80;95858.50;10518353;28;2766;-82
2021/08/17 17:12:52;;;;;;;;;;;18.40;99.90;;;16.87;53.74;95874.16;10524068;28;2359;-82
2021/08/17 17:17:55;;;;;;;;;;;18.10;99.90;;;16.71;54.42;95868.28;10516804;28;2331;-82
2021/08/17 17:22:58;;;;;;;;;;;17.80;99.90;;;16.48;53.63;95859.34;10483785;28;2213;-79
2021/08/17 17:28:00;;;;;;;;;;;17.60;99.90;;;16.41;54.01;95848.09;10486045;28;2335;-79
2021/08/17 17:33:04;;;;;;;;;;;17.50;99.90;;;16.26;53.26;95851.19;10494361;28;2486;-80
2021/08/17 17:38:07;;;;;;;;;;;17.40;99.90;;;16.06;54.01;95853.28;10500851;28;2403;-80
2021/08/17 17:43:10;;;;;;;;;;;17.20;99.90;;;15.98;54.08;95835.03;10504939;28;1957;-79
2021/08/17 17:48:13;;;;;;;;;;;17.00;99.90;;;15.88;54.60;95816.28;10513975;28;2254;-79
2021/08/17 17:53:16;;;;;;;;;;;16.90;99.90;;;15.78;55.27;95821.94;10521010;28;2383;-78
2021/08/17 17:58:19;;;;;;;;;;;16.90;99.90;;;15.74;55.90;95815.53;10507162;28;2466;-79
2021/08/17 18:03:21;;;;;;;;;;;16.80;99.90;;;15.67;56.01;95848.47;10509015;28;2295;-81
2021/08/17 18:08:24;;;;;;;;;;;16.80;99.90;;;15.52;55.68;95844.13;10494745;28;2552;-79
2021/08/17 18:13:27;;;;;;;;;;;16.70;99.90;;;15.37;56.54;95863.41;10518814;28;2345;-80
2021/08/17 18:18:30;;;;;;;;;;;16.50;99.90;;;15.20;55.65;95869.41;10520968;28;2336;-79
2021/08/17 18:23:33;;;;;;;;;;;16.40;99.90;;;15.12;56.29;95878.25;10491189;28;2301;-81
2021/08/17 18:28:38;;;;;;;;;;;16.20;99.90;;;15.07;56.42;95870.19;10508651;28;2304;-80
2021/08/17 18:33:41;;;;;;;;;;;16.20;99.90;;;15.05;55.60;95878.63;10502072;28;2422;-79
2021/08/17 18:38:44;;;;;;;;;;;16.10;99.90;;;14.99;56.21;95881.72;10516153;28;2397;-79
2021/08/17 18:43:49;;;;;;;;;;;16.00;99.90;;;15.00;55.80;95892.25;10530755;28;2315;-80
2021/08/17 18:48:52;;;;;;;;;;;16.00;99.90;;;14.93;56.15;95897.25;10500471;28;2387;-78
2021/08/17 18:53:54;;;;;;;;;;;16.00;99.90;;;14.92;55.69;95895.66;10539475;28;2595;-78
2021/08/17 18:58:57;;;;;;;;;;;16.00;99.90;;;14.88;56.42;95900.06;10533164;28;2661;-80
2021/08/17 19:04:03;;;;;;;;;;;15.90;99.90;;;14.84;56.68;95905.28;10497607;28;2475;-81
2021/08/17 19:09:08;;;;;;;;;;;15.90;99.90;;;14.85;57.03;95916.91;10517096;28;2355;-82
2021/08/17 19:14:15;;;;;;;;;;;15.90;99.90;;;14.83;57.69;95914.50;10540280;28;2377;-81
2021/08/17 19:19:18;;;;;;;;;;;15.90;99.90;;;14.80;57.76;95912.38;10508180;28;2159;-78
2021/08/17 19:24:21;;;;;;;;;;;15.90;99.90;;;14.83;58.71;95919.09;10525124;28;2348;-80
2021/08/17 19:29:31;;;;;;;;;;;15.90;99.90;;;14.71;59.08;95922.28;10532217;28;2501;-80
2021/08/17 19:34:34;;;;;;;;;;;15.80;99.90;;;14.79;58.70;95923.50;10485362;28;2670;-81
2021/08/17 19:39:37;;;;;;;;;;;15.80;99.90;;;14.79;57.67;95924.28;10514309;28;2697;-79
2021/08/17 19:44:40;;;;;;;;;;;15.80;99.90;;;14.83;58.37;95927.22;10498809;28;2021;-80
2021/08/17 19:49:43;;;;;;;;;;;15.80;99.90;;;14.71;57.42;95933.09;10490425;28;2392;-81
2021/08/17 19:54:46;;;;;;;;;;;15.80;99.90;;;14.77;55.66;95920.28;10509064;28;2391;-80
2021/08/17 19:59:54;;;;;;;;;;;15.80;99.90;;;14.83;55.18;95924.50;10497961;28;2353;-80
2021/08/17 20:04:57;;;;;;;;;;;15.80;99.90;;;14.81;56.70;95922.09;10513899;28;2395;-79
2021/08/17 20:09:59;;;;;;;;;;;15.80;99.90;;;14.76;57.49;95929.47;10507445;28;2412;-80
2021/08/17 20:15:02;;;;;;;;;;;15.80;99.90;;;14.52;65.54;95908.78;10486587;28;2351;-78
2021/08/17 20:20:06;;;;;;;;;;;15.70;99.90;;;14.03;63.24;95907.31;10517662;28;2385;-81
2021/08/17 20:25:09;;;;;;;;;;;15.40;99.90;;;13.78;65.39;95899.56;10494858;28;2288;-80
2021/08/17 20:30:12;;;;;;;;;;;15.00;99.90;;;13.63;68.75;95880.84;10512307;28;2375;-80
2021/08/17 20:35:16;;;;;;;;;;;14.80;99.90;;;13.41;78.72;95922.69;10509682;28;2665;-81
2021/08/17 20:40:24;;;;;;;;;;;14.70;99.90;;;13.31;72.60;95914.72;10518316;28;2300;-81
2021/08/17 20:45:27;;;;;;;;;;;14.50;99.90;;;13.15;75.75;95951.81;10496923;28;2311;-78
2021/08/17 20:50:29;;;;;;;;;;;14.40;99.90;;;12.50;84.51;95972.09;10495141;28;2360;-79
2021/08/17 20:55:32;;;;;;;;;;;13.90;99.90;;;12.21;94.75;95972.78;10522306;28;2343;-81
2021/08/17 21:00:35;;;;;;;;;;;13.60;99.90;;;12.11;94.88;95962.91;10502746;28;2154;-80
2021/08/17 21:05:41;;;;;;;;;;;13.30;99.90;;;11.81;99.75;95958.47;10514459;28;2296;-82
2021/08/17 21:10:44;;;;;;;;;;;13.00;99.90;;;11.99;98.25;95967.00;10504755;28;2034;-81
2021/08/17 21:15:47;;;;;;;;;;;12.90;99.90;;;11.93;100.00;95989.66;10492146;28;2510;-82
2021/08/17 21:20:50;;;;;;;;;;;12.90;99.90;;;12.03;100.00;96028.16;10520473;28;2364;-80
2021/08/17 21:25:53;;;;;;;;;;;13.00;99.90;;;11.46;94.96;95998.97;10495466;28;2319;-79
2021/08/17 21:30:55;;;;;;;;;;;12.80;99.90;;;11.04;99.59;95990.16;10487626;28;2331;-81
2021/08/17 21:35:58;;;;;;;;;;;12.30;99.90;;;11.06;100.00;95993.38;10497724;28;2303;-81
2021/08/17 21:41:01;;;;;;;;;;;12.10;99.90;;;10.97;100.00;96018.41;10519480;28;2296;-80
2021/08/17 21:46:04;;;;;;;;;;;12.00;99.90;;;10.87;100.00;96021.09;10510618;28;2356;-80
2021/08/17 21:51:07;;;;;;;;;;;11.90;99.90;;;10.72;100.00;96014.63;10502833;28;2399;-80
2021/08/17 21:56:10;;;;;;;;;;;11.80;99.90;;;10.78;100.00;96016.25;10510848;28;2421;-80
2021/08/17 22:01:12;;;;;;;;;;;11.80;99.90;;;10.96;100.00;96017.59;10499320;28;1984;-80
2021/08/17 22:06:16;;;;;;;;;;;11.80;99.90;;;10.99;100.00;96008.97;10497428;28;2289;-81
2021/08/17 22:11:18;;;;;;;;;;;11.90;99.90;;;10.88;100.00;95990.41;10482807;28;2274;-78
2021/08/17 22:16:21;;;;;;;;;;;11.90;99.90;;;10.85;100.00;95993.66;10494952;28;2332;-80
2021/08/17 22:21:24;;;;;;;;;;;11.90;99.90;;;10.75;100.00;96007.91;10507870;28;2260;-78
2021/08/17 22:26:27;;;;;;;;;;;11.80;99.90;;;10.80;100.00;96008.72;10508232;28;2321;-79
2021/08/17 22:31:30;;;;;;;;;;;11.90;99.90;;;10.96;100.00;96014.09;10510517;28;2087;-79
2021/08/17 22:36:33;;;;;;;;;;;11.90;99.90;;;11.15;100.00;96007.09;10483687;28;1933;-80
2021/08/17 22:41:35;;;;;;;;;;;12.00;99.90;;;11.23;100.00;95982.31;10485137;28;2306;-79
2021/08/17 22:46:38;;;;;;;;;;;12.10;99.90;;;11.26;100.00;95983.66;10506575;28;2288;-80
2021/08/17 22:51:41;;;;;;;;;;;12.10;99.90;;;11.24;100.00;95989.31;10490838;28;2345;-80
2021/08/17 22:56:44;;;;;;;;;;;12.20;99.90;;;11.16;100.00;95986.38;10507968;28;2324;-78
2021/08/17 23:01:47;;;;;;;;;;;12.20;99.90;;;11.18;100.00;95982.31;10491379;28;2207;-78
2021/08/17 23:06:50;;;;;;;;;;;12.10;99.90;;;11.24;100.00;95970.47;10494718;28;2356;-78
2021/08/17 23:11:52;;;;;;;;;;;12.20;99.90;;;11.30;100.00;95977.47;10499890;28;2296;-78
2021/08/17 23:16:55;;;;;;;;;;;12.20;99.90;;;11.45;100.00;95967.72;10496078;28;1972;-78
2021/08/17 23:21:58;;;;;;;;;;;12.30;99.90;;;11.50;100.00;95965.03;10513771;28;2257;-81
2021/08/17 23:27:01;;;;;;;;;;;12.40;99.90;;;11.57;100.00;95954.75;10528056;28;2101;-81
2021/08/17 23:32:04;;;;;;;;;;;12.40;99.90;;;11.61;100.00;95955.84;10504255;28;2322;-80
2021/08/17 23:37:07;;;;;;;;;;;12.50;99.90;;;11.57;100.00;95947.47;10517920;28;2034;-80
2021/08/17 23:42:09;;;;;;;;;;;12.50;99.90;;;11.63;100.00;95942.88;10501540;28;2336;-79
2021/08/17 23:47:12;;;;;;;;;;;12.50;99.90;;;11.71;100.00;95952.31;10527959;28;2190;-81
2021/08/17 23:52:15;;;;;;;;;;;12.60;99.90;;;11.69;100.00;95936.41;10507938;28;2294;-81
2021/08/17 23:57:17;;;;;;;;;;;12.60;99.90;;;11.68;100.00;95934.00;10539610;28;2587;-81
